DW7880 Acharnes GR current weather conditions

sailwx.info

Wind from 186 at 4 knots gusting 9

Air temperature 25.0° C
Dewpoint 4.7° C

Last reported at 2018-Apr-23 13:45 UTC.
Time now 2018-Apr-23 14:57 UTC

Location: N 38°05' E 023°43'.
View on Google Maps.

See reports from other nearby stations

  
Tides and Currents Weather Stations Pressure Air Temp Water Temp Dewpoint Dewpoint Depression Visibility Wind Speed Wind Dir Waves Ship Positions
date/time (UTC)wind fromknots sea level pressurealtimeterstation pressurevisibilityair tempwater tempwave heightnotes
2018-Apr-23 14:21 152 3 gusting 6 24.4
2018-Apr-23 14:12 152 3 gusting 7 24.4
2018-Apr-23 13:45 186 4 gusting 9 25.0
2018-Apr-23 13:36 171 5 gusting 9 25.0
2018-Apr-23 13:09 155 3 gusting 9 25.0
2018-Apr-23 13:00 176 3 gusting 6 25.0
2018-Apr-23 12:51 164 3 gusting 8 25.0
2018-Apr-23 12:42 188 4 gusting 8 25.6
2018-Apr-23 12:24 156 2 gusting 7 26.1
2018-Apr-23 12:15 152 4 gusting 8 26.1
2018-Apr-23 12:06 176 2 gusting 9 26.7
2018-Apr-23 11:57 208 3 gusting 9 26.1
2018-Apr-23 11:48 183 2 gusting 7 26.1
2018-Apr-23 11:39 182 3 gusting 7 26.1
2018-Apr-23 11:21 166 4 gusting 10 26.1
2018-Apr-23 11:12 205 3 gusting 9 26.7
2018-Apr-23 10:27 176 4 gusting 9 26.7
2018-Apr-23 09:51 121 2 gusting 6 26.1
2018-Apr-23 09:42 218 2 gusting 5 25.6
2018-Apr-23 09:24 116 6 gusting 13 25.6
2018-Apr-23 09:15 118 4 gusting 11 25.6
2018-Apr-23 09:06 118 5 gusting 10 25.6
2018-Apr-23 08:57 143 4 gusting 9 25.6
2018-Apr-23 08:48 168 3 gusting 7 25.6
2018-Apr-23 08:39 153 2 gusting 6 25.6
2018-Apr-23 08:03 162 0 gusting 4 29.4
2018-Apr-23 07:18 133 1 gusting 3 23.3
2018-Apr-23 07:09 149 0 gusting 4 23.3
2018-Apr-23 06:51 194 22.2
2018-Apr-23 06:15 125 0 gusting 3 20.6
2018-Apr-23 06:06 106 1 gusting 3 20.6
2018-Apr-23 05:48 174 0 gusting 2 19.4
2018-Apr-23 05:03 15.6
2018-Apr-23 04:45 314 13.9
2018-Apr-23 04:36 317 0 gusting 2 13.3
2018-Apr-23 04:00 346 1 gusting 3 11.7
2018-Apr-23 03:33 314 11.7
2018-Apr-23 03:24 11.7
2018-Apr-23 03:06 11.7
2018-Apr-23 02:48 11.7
2018-Apr-23 02:39 11.7
2018-Apr-23 02:03 314 0 gusting 1 12.2
2018-Apr-23 01:27 328 12.8
2018-Apr-23 01:00 314 13.3
2018-Apr-23 00:51 13.9
2018-Apr-23 00:06 004 1 gusting 3 13.9
2018-Apr-22 23:57 329 2 gusting 4 13.9
2018-Apr-22 23:03 326 0 gusting 5 14.4
2018-Apr-22 22:27 001 2 gusting 6 14.4
2018-Apr-22 22:18 343 1 gusting 4 14.4
2018-Apr-22 22:09 346 1 gusting 4 14.4
2018-Apr-22 21:15 310 3 gusting 6 15.0
2018-Apr-22 20:57 302 2 gusting 6 15.6
2018-Apr-22 20:39 312 3 gusting 6 15.6
2018-Apr-22 20:03 306 0 gusting 3 15.6
2018-Apr-22 19:45 313 0 gusting 3 15.6
2018-Apr-22 19:36 308 0 gusting 2 16.1
2018-Apr-22 19:27 306 0 gusting 2 16.1
2018-Apr-22 19:18 314 0 gusting 3 16.1
2018-Apr-22 18:51 295 0 gusting 3 16.7
2018-Apr-22 18:33 272 1 gusting 3 16.7
2018-Apr-22 18:24 248 0 gusting 2 17.2
2018-Apr-22 18:15 230 1 gusting 3 17.2
2018-Apr-22 17:57 294 1 gusting 3 17.8
2018-Apr-22 17:48 244 0 gusting 2 18.3
2018-Apr-22 17:30 088 0 gusting 2 18.9
2018-Apr-22 17:21 090 18.9
2018-Apr-22 17:03 097 1 gusting 5 19.4
2018-Apr-22 16:27 171 1 gusting 6 21.7
2018-Apr-22 16:18 185 2 gusting 6 22.2
2018-Apr-22 16:00 177 3 gusting 6 22.8
2018-Apr-22 15:42 187 2 gusting 7 23.3
2018-Apr-22 15:24 144 4 gusting 8 23.9
2018-Apr-22 15:06 178 4 gusting 9 24.4
2018-Apr-22 14:57 161 3 gusting 9 25.0
2018-Apr-22 14:48 158 2 gusting 6 25.0
2018-Apr-22 14:39 184 3 gusting 6 25.0
2018-Apr-22 14:21 168 4 gusting 9 25.0
2018-Apr-22 13:45 159 4 gusting 9 25.0
2018-Apr-22 13:27 174 4 gusting 13 25.0
2018-Apr-22 13:18 173 2 gusting 6 25.0
2018-Apr-22 13:00 198 3 gusting 7 25.0
2018-Apr-22 12:51 198 4 gusting 9 25.0
2018-Apr-22 12:42 178 5 gusting 10 25.0
2018-Apr-22 12:33 183 6 gusting 14 25.6
2018-Apr-22 12:24 202 6 gusting 12 26.1
2018-Apr-22 11:48 181 3 gusting 7 26.1
2018-Apr-22 11:39 245 3 gusting 6 26.1
2018-Apr-22 11:30 169 2 gusting 6 25.6
2018-Apr-22 11:21 245 4 gusting 8 25.6
2018-Apr-22 10:45 249 5 gusting 9 25.0
2018-Apr-22 10:36 240 4 gusting 9 25.6
2018-Apr-22 10:18 243 4 gusting 8 25.6
2018-Apr-22 10:00 229 3 gusting 9 25.0
2018-Apr-22 09:51 242 3 gusting 9 25.0
2018-Apr-22 09:15 225 1 gusting 6 24.4
2018-Apr-22 08:48 245 3 gusting 6 24.4
2018-Apr-22 08:39 173 1 gusting 6 24.4
2018-Apr-22 08:30 177 2 gusting 6 23.9
2018-Apr-22 07:54 213 2 gusting 7 24.4
2018-Apr-22 07:36 195 2 gusting 6 21.7
2018-Apr-22 07:27 204 2 gusting 6 21.7
2018-Apr-22 07:09 192 1 gusting 4 20.6
2018-Apr-22 07:00 217 2 gusting 6 19.4
2018-Apr-22 06:51 216 3 gusting 6 19.4
2018-Apr-22 06:42 195 2 gusting 6 19.4
2018-Apr-22 06:15 213 2 gusting 6 18.9
2018-Apr-22 06:06 146 0 gusting 2 19.4
2018-Apr-22 05:39 147 0 gusting 2 18.3
2018-Apr-22 05:12 038 15.6
2018-Apr-22 05:03 355 1 gusting 6 15.0
2018-Apr-22 04:45 001 13.9
2018-Apr-22 04:36 001 13.3
2018-Apr-22 04:27 13.3
2018-Apr-22 04:18 293 0 gusting 4 12.8
2018-Apr-22 04:00 319 1 gusting 3 12.2
2018-Apr-22 03:51 252 0 gusting 4 12.2
2018-Apr-22 03:42 273 2 gusting 6 12.2
2018-Apr-22 02:57 307 2 gusting 5 12.2
2018-Apr-22 02:48 307 2 gusting 5 12.2
2018-Apr-22 02:39 290 1 gusting 5 12.2
2018-Apr-22 02:21 288 2 gusting 6 12.2
2018-Apr-22 02:12 291 3 gusting 6 12.2
2018-Apr-22 01:27 304 2 gusting 6 12.2
2018-Apr-22 01:00 316 2 gusting 8 12.2
2018-Apr-22 00:51 298 2 gusting 6 12.2
2018-Apr-22 00:33 323 1 gusting 4 12.8
2018-Apr-22 00:24 304 2 gusting 4 12.8
2018-Apr-21 23:57 292 0 gusting 3 12.8
2018-Apr-21 23:48 304 1 gusting 5 12.8
2018-Apr-21 23:39 320 2 gusting 6 12.8
2018-Apr-21 23:30 293 1 gusting 5 13.3
2018-Apr-21 23:03 312 4 gusting 7 13.3
2018-Apr-21 22:54 301 4 gusting 7 13.3
2018-Apr-21 22:45 283 2 gusting 5 13.3
2018-Apr-21 22:27 305 3 gusting 8 13.3
2018-Apr-21 22:09 295 2 gusting 4 13.3
2018-Apr-21 22:00 266 2 gusting 4 13.3
2018-Apr-21 21:51 274 2 gusting 6 13.3
2018-Apr-21 21:42 305 1 gusting 5 13.3
2018-Apr-21 21:15 12.8
2018-Apr-21 21:06 12.8
2018-Apr-21 20:48 225 13.3
2018-Apr-21 20:30 257 2 gusting 5 13.3
2018-Apr-21 20:21 281 2 gusting 5 13.9
2018-Apr-21 20:12 293 1 gusting 4 13.9
2018-Apr-21 19:54 230 1 gusting 3 13.9
2018-Apr-21 19:45 257 1 gusting 3 13.9
2018-Apr-21 19:18 324 1 gusting 8 13.9
2018-Apr-21 19:09 305 1 gusting 4 14.4
2018-Apr-21 19:00 200 14.4
2018-Apr-21 18:51 278 0 gusting 3 14.4
2018-Apr-21 18:24 261 2 gusting 5 15.0
2018-Apr-21 18:15 256 2 gusting 5 15.0
2018-Apr-21 18:06 348 1 gusting 3 15.0
2018-Apr-21 17:57 313 1 gusting 3 15.0
2018-Apr-21 17:48 318 1 gusting 3 15.6
2018-Apr-21 17:39 15.6
2018-Apr-21 17:21 349 16.1
2018-Apr-21 16:54 033 2 gusting 6 17.2
2018-Apr-21 16:27 348 2 gusting 6 18.9
2018-Apr-21 16:18 318 1 gusting 9 18.9
2018-Apr-21 16:09 326 3 gusting 7 18.9
2018-Apr-21 16:00 331 2 gusting 8 19.4
2018-Apr-21 15:51 349 4 gusting 8 19.4
2018-Apr-21 15:15 312 5 gusting 12 19.4
2018-Apr-21 14:57 345 6 gusting 14 19.4